createdAt,value
2023-04-05T00:00:23.552Z,32.97
2023-04-05T00:05:31.108Z,32.50
2023-04-05T00:10:32.652Z,31.48
2023-04-05T00:15:34.225Z,26.85
2023-04-05T00:20:37.462Z,31.20
2023-04-05T00:25:38.869Z,26.02
2023-04-05T00:30:40.709Z,31.70
2023-04-05T00:35:42.326Z,26.52
2023-04-05T00:40:43.960Z,33.13
2023-04-05T00:45:46.376Z,24.38
2023-04-05T00:50:50.038Z,28.33
2023-04-05T00:55:54.086Z,25.05
2023-04-05T01:01:18.584Z,27.83
2023-04-05T01:06:42.182Z,27.25
2023-04-05T01:11:47.271Z,21.48
2023-04-05T01:16:49.890Z,22.50
2023-04-05T01:22:14.116Z,18.67
2023-04-05T01:27:36.409Z,26.35
2023-04-05T01:32:54.227Z,27.55
2023-04-05T01:38:00.890Z,26.73
2023-04-05T01:43:03.230Z,25.48
2023-04-05T01:48:04.841Z,26.52
2023-04-05T01:53:09.292Z,24.65
2023-04-05T01:58:10.830Z,21.10
2023-04-05T02:03:12.404Z,27.75
2023-04-05T02:08:14.366Z,24.92
2023-04-05T02:13:16.042Z,28.50
2023-04-05T02:18:22.434Z,26.23
2023-04-05T02:23:24.051Z,23.55
2023-04-05T02:28:26.049Z,22.00
2023-04-05T02:33:27.888Z,23.63
2023-04-05T02:38:29.706Z,24.63
2023-04-05T02:43:31.157Z,26.65
2023-04-05T02:48:32.853Z,26.73
2023-04-05T02:53:35.352Z,20.90
2023-04-05T02:58:36.784Z,24.17
2023-04-05T03:03:40.258Z,26.02
2023-04-05T03:08:48.584Z,22.95
2023-04-05T03:13:50.186Z,23.60
2023-04-05T03:18:51.600Z,29.45
2023-04-05T03:23:53.038Z,26.20
2023-04-05T03:28:54.480Z,21.67
2023-04-05T03:33:56.063Z,27.08
2023-04-05T03:38:57.536Z,25.25
2023-04-05T03:43:59.261Z,25.45
2023-04-05T03:49:01.390Z,25.08
2023-04-05T03:54:02.866Z,20.13
2023-04-05T03:59:04.335Z,24.75
2023-04-05T04:04:05.842Z,25.15
2023-04-05T04:09:07.294Z,32.97
2023-04-05T04:14:08.713Z,28.25
2023-04-05T04:19:10.209Z,23.45
2023-04-05T04:24:18.629Z,26.90
2023-04-05T04:29:20.206Z,26.58
2023-04-05T04:34:21.666Z,24.90
2023-04-05T04:39:26.797Z,21.90
2023-04-05T04:44:28.307Z,29.20
2023-04-05T04:49:33.086Z,28.52
2023-04-05T04:54:36.055Z,27.92
2023-04-05T04:59:37.602Z,21.83
2023-04-05T05:04:41.483Z,23.85
2023-04-05T05:09:43.375Z,25.58
2023-04-05T05:14:44.786Z,24.80
2023-04-05T05:19:46.246Z,21.05
2023-04-05T05:24:48.134Z,21.95
2023-04-05T05:29:49.646Z,22.70
2023-04-05T05:34:51.105Z,23.77
2023-04-05T05:39:52.565Z,24.60
2023-04-05T05:44:54.105Z,25.13
2023-04-05T05:49:56.206Z,26.35
2023-04-05T05:54:57.620Z,22.35
2023-04-05T05:59:59.025Z,27.33
2023-04-05T06:05:02.192Z,21.13
2023-04-05T06:10:07.839Z,23.63
2023-04-05T06:15:09.734Z,23.77
2023-04-05T06:20:11.834Z,27.23
2023-04-05T06:25:13.444Z,25.70
2023-04-05T06:30:15.027Z,23.20
2023-04-05T06:35:16.556Z,27.88
2023-04-05T06:40:18.333Z,23.92
2023-04-05T06:45:19.885Z,27.20
2023-04-05T06:50:21.429Z,19.50
2023-04-05T06:55:22.911Z,26.42
2023-04-05T07:00:24.404Z,28.13
2023-04-05T07:05:26.060Z,25.98
2023-04-05T07:10:27.528Z,23.73
2023-04-05T07:15:28.982Z,31.88
2023-04-05T07:20:30.436Z,24.80
2023-04-05T07:25:32.306Z,22.25
2023-04-05T07:30:33.730Z,27.42
2023-04-05T07:35:35.321Z,24.00
2023-04-05T07:40:37.029Z,23.08
2023-04-05T07:45:38.480Z,25.83
2023-04-05T07:50:41.216Z,24.58
2023-04-05T07:55:43.145Z,21.67
2023-04-05T08:00:44.579Z,23.20
2023-04-05T08:05:46.035Z,16.77
2023-04-05T08:10:47.482Z,16.08
2023-04-05T08:15:48.969Z,13.77
2023-04-05T08:20:57.209Z,14.68
2023-04-05T08:25:58.665Z,18.23
2023-04-05T08:31:00.369Z,15.88
2023-04-05T08:36:06.233Z,15.13
2023-04-05T08:41:19.044Z,13.27
2023-04-05T08:46:22.064Z,15.23
2023-04-05T08:51:25.872Z,16.83
2023-04-05T08:56:32.217Z,13.15
2023-04-05T09:01:37.048Z,10.40
2023-04-05T09:06:39.140Z,10.55
2023-04-05T09:11:40.968Z,8.90
2023-04-05T09:16:42.788Z,7.38
2023-04-05T09:22:02.144Z,10.55
2023-04-05T09:32:18.166Z,8.00
2023-04-05T09:37:20.921Z,7.20
2023-04-05T09:42:26.069Z,8.35
2023-04-05T09:47:32.470Z,8.02
2023-04-05T09:52:34.152Z,7.20
2023-04-05T09:57:37.739Z,8.68
2023-04-05T10:02:39.953Z,9.82
2023-04-05T10:07:42.993Z,10.93
2023-04-05T10:12:46.718Z,9.27
2023-04-05T10:18:06.524Z,10.00
2023-04-05T10:23:12.685Z,10.68
2023-04-05T10:28:36.274Z,7.40
2023-04-05T10:33:46.424Z,7.40
2023-04-05T10:39:04.194Z,10.52
2023-04-05T10:44:18.835Z,10.45
2023-04-05T10:49:37.663Z,8.50
2023-04-05T10:54:40.282Z,9.40
2023-04-05T10:59:45.138Z,9.90
2023-04-05T11:04:46.966Z,15.02
2023-04-05T11:09:57.559Z,7.25
2023-04-05T11:15:36.597Z,12.07
2023-04-05T11:20:44.038Z,12.23
2023-04-05T11:25:54.169Z,11.75
2023-04-05T11:30:57.316Z,9.38
2023-04-05T11:36:03.124Z,14.48
2023-04-05T11:41:17.862Z,9.65
2023-04-05T11:46:21.317Z,9.45
2023-04-05T11:51:24.466Z,12.50
2023-04-05T11:56:26.111Z,9.05
2023-04-05T12:01:27.575Z,8.52
2023-04-05T12:06:29.009Z,4.45
2023-04-05T12:11:33.329Z,6.80
2023-04-05T12:16:34.766Z,6.88
2023-04-05T12:21:36.837Z,8.05
2023-04-05T12:26:38.700Z,6.47
2023-04-05T12:31:45.193Z,6.18
2023-04-05T12:36:46.784Z,5.93
2023-04-05T12:41:59.505Z,7.75
2023-04-05T12:47:09.198Z,6.00
2023-04-05T12:52:11.580Z,7.90
2023-04-05T12:57:14.275Z,4.78
2023-04-05T13:02:15.778Z,6.63
2023-04-05T13:07:17.298Z,6.43
2023-04-05T13:12:18.910Z,7.53
2023-04-05T13:17:21.363Z,7.72
2023-04-05T13:22:22.808Z,5.60
2023-04-05T13:27:24.256Z,5.85
2023-04-05T13:32:25.891Z,7.90
2023-04-05T13:37:27.428Z,5.38
2023-04-05T13:42:28.898Z,8.73
2023-04-05T13:47:30.397Z,6.80
2023-04-05T13:52:31.844Z,6.32
2023-04-05T13:57:33.292Z,8.20
2023-04-05T14:02:34.959Z,5.80
2023-04-05T14:07:36.954Z,8.48
2023-04-05T14:12:39.277Z,9.75
2023-04-05T14:17:40.890Z,7.53
2023-04-05T14:22:42.382Z,8.23
2023-04-05T14:27:43.849Z,5.88
2023-04-05T14:32:45.341Z,15.02
2023-04-05T14:37:46.806Z,6.03
2023-04-05T14:42:50.218Z,13.18
2023-04-05T14:47:51.994Z,6.50
2023-04-05T14:52:53.960Z,9.88
2023-04-05T14:57:55.411Z,7.20
2023-04-05T15:02:56.985Z,15.73
2023-04-05T15:07:58.509Z,9.02
2023-04-05T15:13:00.344Z,5.45
2023-04-05T15:18:02.521Z,7.07
2023-04-05T15:23:04.022Z,5.38
2023-04-05T15:28:06.995Z,7.60
2023-04-05T15:33:08.631Z,9.60
2023-04-05T15:38:10.217Z,8.60
2023-04-05T15:43:11.686Z,9.40
2023-04-05T15:48:13.878Z,7.93
2023-04-05T15:53:15.611Z,8.98
2023-04-05T15:58:17.062Z,6.80
2023-04-05T16:03:18.628Z,9.23
2023-04-05T16:08:20.087Z,10.05
2023-04-05T16:13:21.683Z,8.30
2023-04-05T16:18:24.324Z,7.72
2023-04-05T16:23:25.885Z,8.88
2023-04-05T16:28:27.332Z,9.65
2023-04-05T16:33:28.732Z,17.75
2023-04-05T16:38:30.184Z,7.45
2023-04-05T16:43:31.634Z,11.30
2023-04-05T16:48:33.075Z,12.48
2023-04-05T16:53:34.524Z,11.35
2023-04-05T16:58:36.003Z,12.02
2023-04-05T17:03:37.688Z,11.05
2023-04-05T17:08:39.148Z,10.90
2023-04-05T17:13:41.899Z,11.52
2023-04-05T17:18:43.356Z,13.80
2023-04-05T17:23:44.821Z,18.10
2023-04-05T17:28:46.604Z,16.98
2023-04-05T17:33:48.895Z,16.85
2023-04-05T17:38:50.712Z,15.95
2023-04-05T17:43:52.180Z,17.30
2023-04-05T17:48:54.157Z,17.77
2023-04-05T17:53:57.433Z,19.33
2023-04-05T17:58:58.878Z,24.30
2023-04-05T18:04:01.197Z,33.15
2023-04-05T18:09:03.668Z,31.48
2023-04-05T18:14:05.515Z,28.90
2023-04-05T18:19:07.416Z,28.83
2023-04-05T18:24:10.613Z,28.00
2023-04-05T18:29:12.287Z,39.78
2023-04-05T18:34:13.757Z,57.03
2023-04-05T18:39:15.713Z,48.15
2023-04-05T18:44:17.168Z,51.40
2023-04-05T18:49:19.201Z,54.08
2023-04-05T18:54:20.807Z,55.53
2023-04-05T18:59:22.643Z,60.72
2023-04-05T19:04:24.126Z,60.45
2023-04-05T19:09:26.542Z,54.85
2023-04-05T19:14:28.048Z,64.43
2023-04-05T19:19:29.448Z,57.97
2023-04-05T19:24:30.850Z,51.03
2023-04-05T19:29:34.572Z,52.47
2023-04-05T19:34:37.981Z,61.88
2023-04-05T19:39:39.558Z,59.30
2023-04-05T19:44:49.598Z,66.97
2023-04-05T19:49:52.630Z,71.38
2023-04-05T19:54:54.463Z,70.30
2023-04-05T19:59:55.963Z,67.22
2023-04-05T20:04:57.385Z,68.03
2023-04-05T20:09:58.827Z,50.92
2023-04-05T20:15:00.275Z,44.85
2023-04-05T20:20:01.811Z,48.67
2023-04-05T20:25:31.555Z,51.45
2023-04-05T20:30:33.051Z,48.10
2023-04-05T20:35:36.191Z,41.17
2023-04-05T20:40:37.642Z,48.42
2023-04-05T20:45:39.068Z,46.13
2023-04-05T20:50:40.931Z,55.60
2023-04-05T20:55:42.429Z,61.88
2023-04-05T21:00:43.903Z,60.67
2023-04-05T21:05:45.455Z,58.17
2023-04-05T21:10:46.969Z,59.45
2023-04-05T21:15:49.034Z,64.68
2023-04-05T21:20:52.126Z,111.10
2023-04-05T21:25:57.452Z,59.22
2023-04-05T21:30:58.971Z,67.70
2023-04-05T21:36:00.587Z,76.05
2023-04-05T21:41:02.081Z,82.47
2023-04-05T21:46:03.492Z,78.82
2023-04-05T21:51:04.923Z,84.10
2023-04-05T21:56:06.427Z,84.60
2023-04-05T22:01:07.887Z,87.45
2023-04-05T22:06:09.309Z,84.43
2023-04-05T22:11:10.731Z,78.93
2023-04-05T22:16:12.509Z,99.35
2023-04-05T22:21:13.972Z,95.70
2023-04-05T22:26:15.373Z,99.60
2023-04-05T22:31:17.246Z,90.45
2023-04-05T22:36:18.674Z,86.15
2023-04-05T22:41:20.136Z,76.55
2023-04-05T22:46:21.669Z,83.45
2023-04-05T22:51:23.186Z,78.88
2023-04-05T22:56:24.671Z,77.97
2023-04-05T23:01:26.582Z,78.75
2023-04-05T23:06:28.055Z,75.50
2023-04-05T23:11:29.471Z,73.70
2023-04-05T23:16:30.903Z,75.15
2023-04-05T23:21:32.392Z,76.13
2023-04-05T23:26:34.468Z,76.25
2023-04-05T23:31:35.919Z,75.25
2023-04-05T23:36:37.657Z,76.68
2023-04-05T23:41:39.350Z,68.45
2023-04-05T23:46:40.902Z,74.60
2023-04-05T23:51:42.896Z,71.20
2023-04-05T23:56:44.683Z,69.53
